Terminal Aerodrome Forecast
Issued by NWS Jackson, MS

Home | Current Version | Previous Version | Text Only | Print | Product List | Glossary On
Versions: 1 2 3 4 5 6 7 8 9 10 11 12 13 14 15 16 17 18
000
FTUS44 KJAN 031221 AAA
TAFMEI
TAF AMD
KMEI 031221Z 0312/0412 22008KT P6SM FEW150 BKN250
      TEMPO 0312/0314 BKN010
     FM031500 23011KT P6SM FEW050 SCT150 BKN250
     FM032000 22012G18KT P6SM VCTS SCT040CB BKN100
     FM040600 19010KT 5SM -TSRA BKN025 OVC040CB=

USA.gov is the U.S. government's official web portal to all federal, state and local government web resources and services.